sensor_id;sensor_type;location;lat;lon;timestamp;temperature;humidity
59881;DHT22;45751;51.380;10.326;2024-03-22T00:01:50;7.00;98.80
59881;DHT22;45751;51.380;10.326;2024-03-22T00:04:17;7.00;98.70
59881;DHT22;45751;51.380;10.326;2024-03-22T00:06:43;7.00;98.70
59881;DHT22;45751;51.380;10.326;2024-03-22T00:09:10;7.10;98.60
59881;DHT22;45751;51.380;10.326;2024-03-22T00:11:36;7.10;98.60
59881;DHT22;45751;51.380;10.326;2024-03-22T00:14:03;7.10;98.60
59881;DHT22;45751;51.380;10.326;2024-03-22T00:16:28;7.20;98.60
59881;DHT22;45751;51.380;10.326;2024-03-22T00:18:54;7.20;98.50
59881;DHT22;45751;51.380;10.326;2024-03-22T00:21:21;7.20;98.60
59881;DHT22;45751;51.380;10.326;2024-03-22T00:23:47;7.20;98.60
59881;DHT22;45751;51.380;10.326;2024-03-22T00:26:13;7.30;98.50
59881;DHT22;45751;51.380;10.326;2024-03-22T00:28:39;7.30;98.40
59881;DHT22;45751;51.380;10.326;2024-03-22T00:31:05;7.30;98.30
59881;DHT22;45751;51.380;10.326;2024-03-22T00:33:31;7.40;98.30
59881;DHT22;45751;51.380;10.326;2024-03-22T00:35:57;7.40;98.30
59881;DHT22;45751;51.380;10.326;2024-03-22T00:38:23;7.40;98.30
59881;DHT22;45751;51.380;10.326;2024-03-22T00:40:49;7.40;98.30
59881;DHT22;45751;51.380;10.326;2024-03-22T00:43:15;7.50;98.30
59881;DHT22;45751;51.380;10.326;2024-03-22T00:45:41;7.50;98.30
59881;DHT22;45751;51.380;10.326;2024-03-22T00:48:07;7.50;98.80
59881;DHT22;45751;51.380;10.326;2024-03-22T00:50:32;7.50;98.30
59881;DHT22;45751;51.380;10.326;2024-03-22T00:52:58;7.60;98.20
59881;DHT22;45751;51.380;10.326;2024-03-22T00:55:24;7.60;98.20
59881;DHT22;45751;51.380;10.326;2024-03-22T00:57:51;7.60;98.10
59881;DHT22;45751;51.380;10.326;2024-03-22T01:00:17;7.60;98.00
59881;DHT22;45751;51.380;10.326;2024-03-22T01:02:43;7.70;98.00
59881;DHT22;45751;51.380;10.326;2024-03-22T01:05:09;7.70;98.00
59881;DHT22;45751;51.380;10.326;2024-03-22T01:07:36;7.70;98.00
59881;DHT22;45751;51.380;10.326;2024-03-22T01:10:03;7.70;98.00
59881;DHT22;45751;51.380;10.326;2024-03-22T01:12:29;7.70;98.00
59881;DHT22;45751;51.380;10.326;2024-03-22T01:14:55;7.70;97.90
59881;DHT22;45751;51.380;10.326;2024-03-22T01:17:21;7.60;97.90
59881;DHT22;45751;51.380;10.326;2024-03-22T01:19:46;7.60;97.80
59881;DHT22;45751;51.380;10.326;2024-03-22T01:22:12;7.60;97.90
59881;DHT22;45751;51.380;10.326;2024-03-22T01:24:38;7.60;97.90
59881;DHT22;45751;51.380;10.326;2024-03-22T01:27:04;7.60;97.90
59881;DHT22;45751;51.380;10.326;2024-03-22T01:29:30;7.50;97.90
59881;DHT22;45751;51.380;10.326;2024-03-22T01:31:58;7.50;97.90
59881;DHT22;45751;51.380;10.326;2024-03-22T01:34:23;7.50;97.90
59881;DHT22;45751;51.380;10.326;2024-03-22T01:36:51;7.50;97.90
59881;DHT22;45751;51.380;10.326;2024-03-22T01:39:16;7.40;97.90
59881;DHT22;45751;51.380;10.326;2024-03-22T01:41:44;7.40;98.00
59881;DHT22;45751;51.380;10.326;2024-03-22T01:44:09;7.40;98.00
59881;DHT22;45751;51.380;10.326;2024-03-22T01:46:35;7.40;98.00
59881;DHT22;45751;51.380;10.326;2024-03-22T01:49:01;7.40;98.10
59881;DHT22;45751;51.380;10.326;2024-03-22T01:51:27;7.30;98.10
59881;DHT22;45751;51.380;10.326;2024-03-22T01:53:53;7.30;98.10
59881;DHT22;45751;51.380;10.326;2024-03-22T01:56:20;7.30;98.20
59881;DHT22;45751;51.380;10.326;2024-03-22T01:58:46;7.30;98.20
59881;DHT22;45751;51.380;10.326;2024-03-22T02:01:12;7.30;98.20
59881;DHT22;45751;51.380;10.326;2024-03-22T02:03:38;7.30;98.30
59881;DHT22;45751;51.380;10.326;2024-03-22T02:06:04;7.30;98.30
59881;DHT22;45751;51.380;10.326;2024-03-22T02:08:30;7.20;98.30
59881;DHT22;45751;51.380;10.326;2024-03-22T02:10:56;7.20;98.30
59881;DHT22;45751;51.380;10.326;2024-03-22T02:13:21;7.20;98.30
59881;DHT22;45751;51.380;10.326;2024-03-22T02:15:47;7.20;98.40
59881;DHT22;45751;51.380;10.326;2024-03-22T02:18:13;7.20;98.40
59881;DHT22;45751;51.380;10.326;2024-03-22T02:20:39;7.20;98.50
59881;DHT22;45751;51.380;10.326;2024-03-22T02:23:04;7.20;98.60
59881;DHT22;45751;51.380;10.326;2024-03-22T02:25:30;7.20;98.60
59881;DHT22;45751;51.380;10.326;2024-03-22T02:27:56;7.20;98.70
59881;DHT22;45751;51.380;10.326;2024-03-22T02:30:21;7.20;98.70
59881;DHT22;45751;51.380;10.326;2024-03-22T02:32:47;7.30;98.70
59881;DHT22;45751;51.380;10.326;2024-03-22T02:35:13;7.30;98.70
59881;DHT22;45751;51.380;10.326;2024-03-22T02:37:39;7.30;98.70
59881;DHT22;45751;51.380;10.326;2024-03-22T02:40:05;7.30;98.80
59881;DHT22;45751;51.380;10.326;2024-03-22T02:42:31;7.30;98.90
59881;DHT22;45751;51.380;10.326;2024-03-22T02:44:57;7.30;98.90
59881;DHT22;45751;51.380;10.326;2024-03-22T02:47:23;7.30;98.90
59881;DHT22;45751;51.380;10.326;2024-03-22T02:49:48;7.30;98.90
59881;DHT22;45751;51.380;10.326;2024-03-22T02:52:14;7.30;98.90
59881;DHT22;45751;51.380;10.326;2024-03-22T02:54:41;7.30;98.90
59881;DHT22;45751;51.380;10.326;2024-03-22T02:57:06;7.30;98.90
59881;DHT22;45751;51.380;10.326;2024-03-22T02:59:32;7.30;98.80
59881;DHT22;45751;51.380;10.326;2024-03-22T03:01:58;7.40;98.80
59881;DHT22;45751;51.380;10.326;2024-03-22T03:04:24;7.40;98.80
59881;DHT22;45751;51.380;10.326;2024-03-22T03:06:49;7.40;98.80
59881;DHT22;45751;51.380;10.326;2024-03-22T03:09:15;7.30;98.90
59881;DHT22;45751;51.380;10.326;2024-03-22T03:11:41;7.30;98.90
59881;DHT22;45751;51.380;10.326;2024-03-22T03:14:07;7.40;99.00
59881;DHT22;45751;51.380;10.326;2024-03-22T03:16:32;7.40;99.10
59881;DHT22;45751;51.380;10.326;2024-03-22T03:18:58;7.30;99.20
59881;DHT22;45751;51.380;10.326;2024-03-22T03:21:24;7.30;99.20
59881;DHT22;45751;51.380;10.326;2024-03-22T03:23:50;7.30;99.40
59881;DHT22;45751;51.380;10.326;2024-03-22T03:26:16;7.30;99.50
59881;DHT22;45751;51.380;10.326;2024-03-22T03:28:42;7.30;99.70
59881;DHT22;45751;51.380;10.326;2024-03-22T03:31:07;7.30;99.80
59881;DHT22;45751;51.380;10.326;2024-03-22T03:33:33;7.30;99.90
59881;DHT22;45751;51.380;10.326;2024-03-22T03:35:59;7.20;99.90
59881;DHT22;45751;51.380;10.326;2024-03-22T03:38:24;7.30;99.90
59881;DHT22;45751;51.380;10.326;2024-03-22T03:40:50;7.30;99.90
59881;DHT22;45751;51.380;10.326;2024-03-22T03:43:16;7.20;99.90
59881;DHT22;45751;51.380;10.326;2024-03-22T03:45:42;7.20;99.90
59881;DHT22;45751;51.380;10.326;2024-03-22T03:48:07;7.20;99.90
59881;DHT22;45751;51.380;10.326;2024-03-22T03:50:33;7.30;99.90
59881;DHT22;45751;51.380;10.326;2024-03-22T03:52:59;7.30;99.90
59881;DHT22;45751;51.380;10.326;2024-03-22T03:55:24;7.40;99.90
59881;DHT22;45751;51.380;10.326;2024-03-22T03:57:50;7.20;99.90
59881;DHT22;45751;51.380;10.326;2024-03-22T04:00:18;7.20;99.90
59881;DHT22;45751;51.380;10.326;2024-03-22T04:02:44;7.20;99.90
59881;DHT22;45751;51.380;10.326;2024-03-22T04:05:09;7.20;99.90
59881;DHT22;45751;51.380;10.326;2024-03-22T04:07:35;7.20;99.90
59881;DHT22;45751;51.380;10.326;2024-03-22T04:10:01;7.30;99.90
59881;DHT22;45751;51.380;10.326;2024-03-22T04:12:28;7.30;99.90
59881;DHT22;45751;51.380;10.326;2024-03-22T04:14:54;7.30;99.90
59881;DHT22;45751;51.380;10.326;2024-03-22T04:17:20;7.20;99.90
59881;DHT22;45751;51.380;10.326;2024-03-22T04:19:46;7.30;99.90
59881;DHT22;45751;51.380;10.326;2024-03-22T04:22:12;7.30;99.90
59881;DHT22;45751;51.380;10.326;2024-03-22T04:24:37;7.30;99.90
59881;DHT22;45751;51.380;10.326;2024-03-22T04:27:03;7.30;99.90
59881;DHT22;45751;51.380;10.326;2024-03-22T04:29:29;7.30;99.90
59881;DHT22;45751;51.380;10.326;2024-03-22T04:31:55;7.30;99.90
59881;DHT22;45751;51.380;10.326;2024-03-22T04:34:21;7.30;99.90
59881;DHT22;45751;51.380;10.326;2024-03-22T04:36:47;7.30;99.90
59881;DHT22;45751;51.380;10.326;2024-03-22T04:39:12;7.30;99.90
59881;DHT22;45751;51.380;10.326;2024-03-22T04:41:39;7.30;99.90
59881;DHT22;45751;51.380;10.326;2024-03-22T04:44:05;7.30;99.90
59881;DHT22;45751;51.380;10.326;2024-03-22T04:46:30;7.30;99.90
59881;DHT22;45751;51.380;10.326;2024-03-22T04:48:56;7.30;99.90
59881;DHT22;45751;51.380;10.326;2024-03-22T04:51:22;7.30;99.90
59881;DHT22;45751;51.380;10.326;2024-03-22T04:53:48;7.40;99.90
59881;DHT22;45751;51.380;10.326;2024-03-22T04:56:13;7.30;99.90
59881;DHT22;45751;51.380;10.326;2024-03-22T04:58:39;7.30;99.90
59881;DHT22;45751;51.380;10.326;2024-03-22T05:01:05;7.30;99.90
59881;DHT22;45751;51.380;10.326;2024-03-22T05:03:31;7.40;99.90
59881;DHT22;45751;51.380;10.326;2024-03-22T05:05:56;7.40;99.90
59881;DHT22;45751;51.380;10.326;2024-03-22T05:08:23;7.40;99.90
59881;DHT22;45751;51.380;10.326;2024-03-22T05:10:48;7.40;99.90
59881;DHT22;45751;51.380;10.326;2024-03-22T05:13:15;7.40;99.90
59881;DHT22;45751;51.380;10.326;2024-03-22T05:15:41;7.40;99.90
59881;DHT22;45751;51.380;10.326;2024-03-22T05:18:06;7.40;99.90
59881;DHT22;45751;51.380;10.326;2024-03-22T05:20:32;7.40;99.90
59881;DHT22;45751;51.380;10.326;2024-03-22T05:22:58;7.40;99.90
59881;DHT22;45751;51.380;10.326;2024-03-22T05:25:24;7.40;99.90
59881;DHT22;45751;51.380;10.326;2024-03-22T05:27:51;7.40;99.90
59881;DHT22;45751;51.380;10.326;2024-03-22T05:30:17;7.50;99.90
59881;DHT22;45751;51.380;10.326;2024-03-22T05:32:43;7.40;99.90
59881;DHT22;45751;51.380;10.326;2024-03-22T05:35:09;7.40;99.90
59881;DHT22;45751;51.380;10.326;2024-03-22T05:37:35;7.40;99.90
59881;DHT22;45751;51.380;10.326;2024-03-22T05:40:01;7.40;99.90
59881;DHT22;45751;51.380;10.326;2024-03-22T05:42:29;7.40;99.90
59881;DHT22;45751;51.380;10.326;2024-03-22T05:44:55;7.40;99.90
59881;DHT22;45751;51.380;10.326;2024-03-22T05:47:21;7.50;99.90
59881;DHT22;45751;51.380;10.326;2024-03-22T05:49:47;7.50;99.90
59881;DHT22;45751;51.380;10.326;2024-03-22T05:52:13;7.50;99.90
59881;DHT22;45751;51.380;10.326;2024-03-22T05:54:39;7.50;99.90
59881;DHT22;45751;51.380;10.326;2024-03-22T05:57:04;7.50;99.90
59881;DHT22;45751;51.380;10.326;2024-03-22T05:59:32;7.50;99.90
59881;DHT22;45751;51.380;10.326;2024-03-22T06:01:58;7.50;99.90
59881;DHT22;45751;51.380;10.326;2024-03-22T06:04:24;7.60;99.90
59881;DHT22;45751;51.380;10.326;2024-03-22T06:06:50;7.50;99.90
59881;DHT22;45751;51.380;10.326;2024-03-22T06:09:16;7.60;99.90
59881;DHT22;45751;51.380;10.326;2024-03-22T06:11:52;7.60;99.90
59881;DHT22;45751;51.380;10.326;2024-03-22T06:14:18;7.60;99.90
59881;DHT22;45751;51.380;10.326;2024-03-22T06:16:43;7.70;99.90
59881;DHT22;45751;51.380;10.326;2024-03-22T06:19:09;7.60;99.90
59881;DHT22;45751;51.380;10.326;2024-03-22T06:21:35;7.70;99.90
59881;DHT22;45751;51.380;10.326;2024-03-22T06:24:01;7.70;99.90
59881;DHT22;45751;51.380;10.326;2024-03-22T06:26:27;7.70;99.90
59881;DHT22;45751;51.380;10.326;2024-03-22T06:28:52;7.70;99.90
59881;DHT22;45751;51.380;10.326;2024-03-22T06:31:18;7.80;99.90
59881;DHT22;45751;51.380;10.326;2024-03-22T06:33:44;7.90;99.90
59881;DHT22;45751;51.380;10.326;2024-03-22T06:36:10;7.80;99.90
59881;DHT22;45751;51.380;10.326;2024-03-22T06:38:35;7.80;99.90
59881;DHT22;45751;51.380;10.326;2024-03-22T06:41:01;7.90;99.90
59881;DHT22;45751;51.380;10.326;2024-03-22T06:43:27;7.90;99.90
59881;DHT22;45751;51.380;10.326;2024-03-22T06:45:53;7.90;99.90
59881;DHT22;45751;51.380;10.326;2024-03-22T06:48:18;7.90;99.90
59881;DHT22;45751;51.380;10.326;2024-03-22T06:50:44;8.00;99.90
59881;DHT22;45751;51.380;10.326;2024-03-22T06:53:11;8.00;99.90
59881;DHT22;45751;51.380;10.326;2024-03-22T06:55:36;8.00;99.90
59881;DHT22;45751;51.380;10.326;2024-03-22T06:58:02;8.00;99.90
59881;DHT22;45751;51.380;10.326;2024-03-22T07:00:28;8.00;99.90
59881;DHT22;45751;51.380;10.326;2024-03-22T07:02:54;8.00;99.90
59881;DHT22;45751;51.380;10.326;2024-03-22T07:05:21;8.10;99.90
59881;DHT22;45751;51.380;10.326;2024-03-22T07:07:47;8.10;99.90
59881;DHT22;45751;51.380;10.326;2024-03-22T07:10:15;8.10;99.90
59881;DHT22;45751;51.380;10.326;2024-03-22T07:12:41;8.10;99.90
59881;DHT22;45751;51.380;10.326;2024-03-22T07:15:07;8.20;99.90
59881;DHT22;45751;51.380;10.326;2024-03-22T07:17:33;8.20;99.90
59881;DHT22;45751;51.380;10.326;2024-03-22T07:19:59;8.20;99.90
59881;DHT22;45751;51.380;10.326;2024-03-22T07:22:25;8.30;99.90
59881;DHT22;45751;51.380;10.326;2024-03-22T07:24:51;8.30;99.90
59881;DHT22;45751;51.380;10.326;2024-03-22T07:27:17;8.40;99.90
59881;DHT22;45751;51.380;10.326;2024-03-22T07:29:44;8.30;99.90
59881;DHT22;45751;51.380;10.326;2024-03-22T07:32:09;8.40;99.90
59881;DHT22;45751;51.380;10.326;2024-03-22T07:34:35;8.40;99.90
59881;DHT22;45751;51.380;10.326;2024-03-22T07:37:01;8.40;99.90
59881;DHT22;45751;51.380;10.326;2024-03-22T07:39:27;8.40;99.90
59881;DHT22;45751;51.380;10.326;2024-03-22T07:41:52;8.40;99.90
59881;DHT22;45751;51.380;10.326;2024-03-22T07:44:18;8.40;99.90
59881;DHT22;45751;51.380;10.326;2024-03-22T07:46:49;8.40;99.90
59881;DHT22;45751;51.380;10.326;2024-03-22T07:49:15;8.40;99.90
59881;DHT22;45751;51.380;10.326;2024-03-22T07:51:41;8.50;99.90
59881;DHT22;45751;51.380;10.326;2024-03-22T07:54:07;8.40;99.90
59881;DHT22;45751;51.380;10.326;2024-03-22T07:56:32;8.50;99.90
59881;DHT22;45751;51.380;10.326;2024-03-22T07:58:58;8.50;99.90
59881;DHT22;45751;51.380;10.326;2024-03-22T08:01:24;8.50;99.90
59881;DHT22;45751;51.380;10.326;2024-03-22T08:03:51;8.50;99.90
59881;DHT22;45751;51.380;10.326;2024-03-22T08:06:17;8.50;99.90
59881;DHT22;45751;51.380;10.326;2024-03-22T08:08:43;8.50;99.90
59881;DHT22;45751;51.380;10.326;2024-03-22T08:11:09;8.60;99.90
59881;DHT22;45751;51.380;10.326;2024-03-22T08:13:35;8.60;99.90
59881;DHT22;45751;51.380;10.326;2024-03-22T08:16:01;8.70;99.90
59881;DHT22;45751;51.380;10.326;2024-03-22T08:18:26;8.70;99.90
59881;DHT22;45751;51.380;10.326;2024-03-22T08:20:52;8.80;99.90
59881;DHT22;45751;51.380;10.326;2024-03-22T08:23:18;8.80;99.90
59881;DHT22;45751;51.380;10.326;2024-03-22T08:25:46;8.90;99.90
59881;DHT22;45751;51.380;10.326;2024-03-22T08:28:12;9.00;99.90
59881;DHT22;45751;51.380;10.326;2024-03-22T08:30:42;9.10;99.90
59881;DHT22;45751;51.380;10.326;2024-03-22T08:33:08;9.10;99.90
59881;DHT22;45751;51.380;10.326;2024-03-22T08:35:34;9.20;99.90
59881;DHT22;45751;51.380;10.326;2024-03-22T08:38:00;9.30;99.90
59881;DHT22;45751;51.380;10.326;2024-03-22T08:40:26;9.40;99.90
59881;DHT22;45751;51.380;10.326;2024-03-22T08:42:52;9.40;99.90
59881;DHT22;45751;51.380;10.326;2024-03-22T08:45:18;9.50;99.90
59881;DHT22;45751;51.380;10.326;2024-03-22T08:47:44;9.50;99.90
59881;DHT22;45751;51.380;10.326;2024-03-22T08:50:13;9.60;99.90
59881;DHT22;45751;51.380;10.326;2024-03-22T08:52:38;9.60;99.90
59881;DHT22;45751;51.380;10.326;2024-03-22T08:55:04;9.70;99.90
59881;DHT22;45751;51.380;10.326;2024-03-22T08:57:33;9.70;99.90
59881;DHT22;45751;51.380;10.326;2024-03-22T08:59:59;9.70;99.90
59881;DHT22;45751;51.380;10.326;2024-03-22T09:02:25;9.80;99.90
59881;DHT22;45751;51.380;10.326;2024-03-22T09:04:50;9.80;99.90
59881;DHT22;45751;51.380;10.326;2024-03-22T09:07:17;9.80;99.90
59881;DHT22;45751;51.380;10.326;2024-03-22T09:09:42;9.80;99.90
59881;DHT22;45751;51.380;10.326;2024-03-22T09:12:09;9.90;99.90
59881;DHT22;45751;51.380;10.326;2024-03-22T09:14:34;9.90;99.90
59881;DHT22;45751;51.380;10.326;2024-03-22T09:17:00;10.00;99.90
59881;DHT22;45751;51.380;10.326;2024-03-22T09:19:26;10.00;99.90
59881;DHT22;45751;51.380;10.326;2024-03-22T09:21:52;10.00;99.90
59881;DHT22;45751;51.380;10.326;2024-03-22T09:24:17;10.10;99.90
59881;DHT22;45751;51.380;10.326;2024-03-22T09:26:43;10.10;99.90
59881;DHT22;45751;51.380;10.326;2024-03-22T09:29:09;10.20;99.90
59881;DHT22;45751;51.380;10.326;2024-03-22T09:31:35;10.20;99.90
59881;DHT22;45751;51.380;10.326;2024-03-22T09:34:01;10.30;99.90
59881;DHT22;45751;51.380;10.326;2024-03-22T09:36:26;10.30;99.90
59881;DHT22;45751;51.380;10.326;2024-03-22T09:38:52;10.30;99.90
59881;DHT22;45751;51.380;10.326;2024-03-22T09:41:24;10.40;99.90
59881;DHT22;45751;51.380;10.326;2024-03-22T09:43:51;10.40;99.90
59881;DHT22;45751;51.380;10.326;2024-03-22T09:46:19;10.40;99.80
59881;DHT22;45751;51.380;10.326;2024-03-22T09:48:47;10.40;99.80
59881;DHT22;45751;51.380;10.326;2024-03-22T09:51:15;10.50;99.70
59881;DHT22;45751;51.380;10.326;2024-03-22T09:53:44;10.50;99.60
59881;DHT22;45751;51.380;10.326;2024-03-22T09:56:14;10.50;99.60
59881;DHT22;45751;51.380;10.326;2024-03-22T09:58:41;10.60;99.70
59881;DHT22;45751;51.380;10.326;2024-03-22T10:01:07;10.60;99.60
59881;DHT22;45751;51.380;10.326;2024-03-22T10:03:33;10.70;99.40
59881;DHT22;45751;51.380;10.326;2024-03-22T10:06:00;10.70;99.10
59881;DHT22;45751;51.380;10.326;2024-03-22T10:08:26;10.70;99.10
59881;DHT22;45751;51.380;10.326;2024-03-22T10:10:52;10.70;99.00
59881;DHT22;45751;51.380;10.326;2024-03-22T10:13:17;10.80;98.90
59881;DHT22;45751;51.380;10.326;2024-03-22T10:15:43;10.80;99.00
59881;DHT22;45751;51.380;10.326;2024-03-22T10:18:10;10.80;99.10
59881;DHT22;45751;51.380;10.326;2024-03-22T10:20:36;10.90;99.10
59881;DHT22;45751;51.380;10.326;2024-03-22T10:23:01;10.90;98.90
59881;DHT22;45751;51.380;10.326;2024-03-22T10:25:28;11.00;98.90
59881;DHT22;45751;51.380;10.326;2024-03-22T10:27:55;11.00;98.70
59881;DHT22;45751;51.380;10.326;2024-03-22T10:30:22;11.00;98.70
59881;DHT22;45751;51.380;10.326;2024-03-22T10:32:50;11.10;98.50
59881;DHT22;45751;51.380;10.326;2024-03-22T10:35:17;11.20;98.30
59881;DHT22;45751;51.380;10.326;2024-03-22T10:37:43;11.20;98.10
59881;DHT22;45751;51.380;10.326;2024-03-22T10:40:09;11.20;98.10
59881;DHT22;45751;51.380;10.326;2024-03-22T10:42:40;11.30;98.10
59881;DHT22;45751;51.380;10.326;2024-03-22T10:45:08;11.40;98.20
59881;DHT22;45751;51.380;10.326;2024-03-22T10:47:35;11.40;98.10
59881;DHT22;45751;51.380;10.326;2024-03-22T10:52:38;11.50;97.80
59881;DHT22;45751;51.380;10.326;2024-03-22T10:55:12;11.50;97.90
59881;DHT22;45751;51.380;10.326;2024-03-22T10:57:39;11.60;97.80
59881;DHT22;45751;51.380;10.326;2024-03-22T11:00:09;11.50;97.80
59881;DHT22;45751;51.380;10.326;2024-03-22T11:02:37;11.70;97.60
59881;DHT22;45751;51.380;10.326;2024-03-22T11:05:06;11.70;97.30
59881;DHT22;45751;51.380;10.326;2024-03-22T11:07:33;11.80;97.10
59881;DHT22;45751;51.380;10.326;2024-03-22T11:10:02;11.80;96.70
59881;DHT22;45751;51.380;10.326;2024-03-22T11:12:30;11.90;95.90
59881;DHT22;45751;51.380;10.326;2024-03-22T11:14:59;11.90;96.30
59881;DHT22;45751;51.380;10.326;2024-03-22T11:17:24;11.90;96.30
59881;DHT22;45751;51.380;10.326;2024-03-22T11:19:53;11.90;96.40
59881;DHT22;45751;51.380;10.326;2024-03-22T11:22:20;12.00;95.90
59881;DHT22;45751;51.380;10.326;2024-03-22T11:24:46;12.00;95.60
59881;DHT22;45751;51.380;10.326;2024-03-22T11:27:12;12.00;95.70
59881;DHT22;45751;51.380;10.326;2024-03-22T11:29:38;12.00;95.30
59881;DHT22;45751;51.380;10.326;2024-03-22T11:32:07;12.10;95.10
59881;DHT22;45751;51.380;10.326;2024-03-22T11:34:35;12.10;94.80
59881;DHT22;45751;51.380;10.326;2024-03-22T11:37:01;12.20;94.80
59881;DHT22;45751;51.380;10.326;2024-03-22T11:39:27;12.20;94.60
59881;DHT22;45751;51.380;10.326;2024-03-22T11:41:53;12.20;94.60
59881;DHT22;45751;51.380;10.326;2024-03-22T11:44:19;12.30;94.60
59881;DHT22;45751;51.380;10.326;2024-03-22T11:46:45;12.30;94.50
59881;DHT22;45751;51.380;10.326;2024-03-22T11:49:11;12.30;94.30
59881;DHT22;45751;51.380;10.326;2024-03-22T11:51:39;12.40;94.30
59881;DHT22;45751;51.380;10.326;2024-03-22T11:54:06;12.40;93.90
59881;DHT22;45751;51.380;10.326;2024-03-22T11:56:35;12.40;93.70
59881;DHT22;45751;51.380;10.326;2024-03-22T11:59:01;12.40;93.60
59881;DHT22;45751;51.380;10.326;2024-03-22T12:01:29;12.50;93.50
59881;DHT22;45751;51.380;10.326;2024-03-22T12:03:57;12.50;93.30
59881;DHT22;45751;51.380;10.326;2024-03-22T12:06:23;12.60;93.20
59881;DHT22;45751;51.380;10.326;2024-03-22T12:08:50;12.60;93.20
59881;DHT22;45751;51.380;10.326;2024-03-22T12:11:16;12.60;92.80
59881;DHT22;45751;51.380;10.326;2024-03-22T12:13:42;12.70;92.80
59881;DHT22;45751;51.380;10.326;2024-03-22T12:16:11;12.70;92.10
59881;DHT22;45751;51.380;10.326;2024-03-22T12:18:39;12.80;92.00
59881;DHT22;45751;51.380;10.326;2024-03-22T12:21:05;12.80;91.90
59881;DHT22;45751;51.380;10.326;2024-03-22T12:23:31;12.90;91.70
59881;DHT22;45751;51.380;10.326;2024-03-22T12:25:57;12.80;91.70
59881;DHT22;45751;51.380;10.326;2024-03-22T12:28:23;12.90;91.80
59881;DHT22;45751;51.380;10.326;2024-03-22T12:30:49;13.00;91.50
59881;DHT22;45751;51.380;10.326;2024-03-22T12:33:15;13.10;91.10
59881;DHT22;45751;51.380;10.326;2024-03-22T12:35:41;13.10;90.90
59881;DHT22;45751;51.380;10.326;2024-03-22T12:38:08;13.10;91.10
59881;DHT22;45751;51.380;10.326;2024-03-22T12:40:39;13.10;90.40
59881;DHT22;45751;51.380;10.326;2024-03-22T12:43:05;13.10;89.70
59881;DHT22;45751;51.380;10.326;2024-03-22T12:45:31;13.10;89.40
59881;DHT22;45751;51.380;10.326;2024-03-22T12:47:58;13.10;90.40
59881;DHT22;45751;51.380;10.326;2024-03-22T12:50:24;13.10;90.70
59881;DHT22;45751;51.380;10.326;2024-03-22T12:52:50;13.10;90.90
59881;DHT22;45751;51.380;10.326;2024-03-22T12:55:17;13.10;90.60
59881;DHT22;45751;51.380;10.326;2024-03-22T12:57:42;13.10;89.60
59881;DHT22;45751;51.380;10.326;2024-03-22T13:00:09;13.10;90.10
59881;DHT22;45751;51.380;10.326;2024-03-22T13:02:41;13.10;90.30
59881;DHT22;45751;51.380;10.326;2024-03-22T13:05:08;13.10;90.30
59881;DHT22;45751;51.380;10.326;2024-03-22T13:07:34;13.10;90.30
59881;DHT22;45751;51.380;10.326;2024-03-22T13:10:00;13.10;90.40
59881;DHT22;45751;51.380;10.326;2024-03-22T13:12:26;13.10;90.70
59881;DHT22;45751;51.380;10.326;2024-03-22T13:14:53;13.00;90.90
59881;DHT22;45751;51.380;10.326;2024-03-22T13:17:18;13.00;90.80
59881;DHT22;45751;51.380;10.326;2024-03-22T13:19:44;13.00;90.90
59881;DHT22;45751;51.380;10.326;2024-03-22T13:22:10;13.00;90.70
59881;DHT22;45751;51.380;10.326;2024-03-22T13:24:36;13.00;90.20
59881;DHT22;45751;51.380;10.326;2024-03-22T13:27:01;13.10;90.00
59881;DHT22;45751;51.380;10.326;2024-03-22T13:29:28;13.10;90.10
59881;DHT22;45751;51.380;10.326;2024-03-22T13:31:54;13.10;90.20
59881;DHT22;45751;51.380;10.326;2024-03-22T13:34:20;13.10;90.20
59881;DHT22;45751;51.380;10.326;2024-03-22T13:36:46;13.10;90.50
59881;DHT22;45751;51.380;10.326;2024-03-22T13:39:12;13.20;90.60
59881;DHT22;45751;51.380;10.326;2024-03-22T13:41:41;13.20;90.30
59881;DHT22;45751;51.380;10.326;2024-03-22T13:44:07;13.20;90.60
59881;DHT22;45751;51.380;10.326;2024-03-22T13:46:34;13.20;90.30
59881;DHT22;45751;51.380;10.326;2024-03-22T13:49:03;13.20;90.30
59881;DHT22;45751;51.380;10.326;2024-03-22T13:51:30;13.30;90.40
59881;DHT22;45751;51.380;10.326;2024-03-22T13:53:57;13.30;90.00
59881;DHT22;45751;51.380;10.326;2024-03-22T13:56:23;13.30;89.50
59881;DHT22;45751;51.380;10.326;2024-03-22T13:58:48;13.30;88.90
59881;DHT22;45751;51.380;10.326;2024-03-22T14:01:14;13.30;88.60
59881;DHT22;45751;51.380;10.326;2024-03-22T14:03:40;13.30;87.10
59881;DHT22;45751;51.380;10.326;2024-03-22T14:06:06;13.30;87.20
59881;DHT22;45751;51.380;10.326;2024-03-22T14:08:32;13.30;87.80
59881;DHT22;45751;51.380;10.326;2024-03-22T14:10:58;13.40;87.40
59881;DHT22;45751;51.380;10.326;2024-03-22T14:13:24;13.40;86.70
59881;DHT22;45751;51.380;10.326;2024-03-22T14:15:49;13.40;86.40
59881;DHT22;45751;51.380;10.326;2024-03-22T14:18:15;13.40;86.20
59881;DHT22;45751;51.380;10.326;2024-03-22T14:20:41;13.40;86.20
59881;DHT22;45751;51.380;10.326;2024-03-22T14:23:07;13.40;86.20
59881;DHT22;45751;51.380;10.326;2024-03-22T14:25:32;13.40;86.00
59881;DHT22;45751;51.380;10.326;2024-03-22T14:27:58;13.40;86.30
59881;DHT22;45751;51.380;10.326;2024-03-22T14:30:24;13.20;86.80
59881;DHT22;45751;51.380;10.326;2024-03-22T14:32:50;13.40;86.60
59881;DHT22;45751;51.380;10.326;2024-03-22T14:35:18;13.30;86.70
59881;DHT22;45751;51.380;10.326;2024-03-22T14:37:44;13.30;86.80
59881;DHT22;45751;51.380;10.326;2024-03-22T14:40:10;13.30;86.50
59881;DHT22;45751;51.380;10.326;2024-03-22T14:42:37;13.20;86.90
59881;DHT22;45751;51.380;10.326;2024-03-22T14:45:03;13.30;87.80
59881;DHT22;45751;51.380;10.326;2024-03-22T14:47:29;13.20;88.00
59881;DHT22;45751;51.380;10.326;2024-03-22T14:49:55;13.20;89.20
59881;DHT22;45751;51.380;10.326;2024-03-22T14:52:20;13.20;89.70
59881;DHT22;45751;51.380;10.326;2024-03-22T14:54:47;13.20;90.50
59881;DHT22;45751;51.380;10.326;2024-03-22T14:57:13;13.20;90.60
59881;DHT22;45751;51.380;10.326;2024-03-22T14:59:41;13.20;90.90
59881;DHT22;45751;51.380;10.326;2024-03-22T15:02:07;13.10;91.40
59881;DHT22;45751;51.380;10.326;2024-03-22T15:04:33;13.10;91.70
59881;DHT22;45751;51.380;10.326;2024-03-22T15:06:59;13.00;91.90
59881;DHT22;45751;51.380;10.326;2024-03-22T15:09:25;13.00;92.90
59881;DHT22;45751;51.380;10.326;2024-03-22T15:11:50;13.00;93.70
59881;DHT22;45751;51.380;10.326;2024-03-22T15:14:16;12.90;93.60
59881;DHT22;45751;51.380;10.326;2024-03-22T15:16:42;12.90;93.90
59881;DHT22;45751;51.380;10.326;2024-03-22T15:19:09;12.90;94.00
59881;DHT22;45751;51.380;10.326;2024-03-22T15:21:36;12.90;94.60